Log in Register

Login to your account

Username *
Password *
Remember Me

Create an account

Fields marked with an asterisk (*) are required.
Name *
Username *
Password *
Verify password *
Email *
Verify email *

L'Aéroclub de Savoie reprend progressivement son activité.

A compter du 07 juillet 2020, nous reprenons l'ensemble des vols, y compris les vols de découverte, d'initiation au pilotage, ainsi que les packs 2 heures et 5 heures.

Compte tenu des demandes en attente, des délais sont à prévoir. Toutefois, nous ferons le maximum pour répondre à vos attentes dans les meilleures conditions.

A compter du 07 juillet, la permanence téléphonique (04 79 54 41 81) sera tenue de 14h à 17h30, du mardi au vendredi, et de 9h00 à 12h30 le samedi matin.

Nous contacter

 Téléphone : +33 (0)4 79 54 41 81

Coordonnées détaillées et accès : cliquez ici

 
LFLB °C
    Ferienhaus Ostsee
[source: ADDS]
METAR
LFLB 091200Z AUTO 33003KT 260V050 CAVOK 33/14 Q1016 TEMPO FEW100TCU =
TAF LFLB 091100Z 0912/1012 35007KT CAVOK TEMPO 1000/1009 VRB02KT BECMG 1010/1012 FEW090TCU
TAF
TAF LFLB 091100Z 0912/1012 35007KT CAVOK TEMPO 1000/1009 VRB02KT BECMG 1010/1012 FEW090TCU =
SR / SS: 04:30 / 18:53 UTC (Lever/Coucher du soleil le 2020-08-09)
JSN Boot template designed by JoomlaShine.com